createdAt,value
2019-05-07T00:00:05.074Z,3.80
2019-05-07T00:01:05.216Z,3.80
2019-05-07T00:02:05.420Z,3.80
2019-05-07T00:03:05.575Z,3.80
2019-05-07T00:04:08.288Z,3.70
2019-05-07T00:05:05.307Z,3.70
2019-05-07T00:06:05.473Z,3.70
2019-05-07T00:07:08.241Z,3.70
2019-05-07T00:08:05.204Z,3.70
2019-05-07T00:09:05.405Z,3.70
2019-05-07T00:10:07.998Z,3.70
2019-05-07T00:11:04.934Z,3.70
2019-05-07T00:12:07.543Z,3.60
2019-05-07T00:13:07.957Z,3.70
2019-05-07T00:14:10.044Z,3.70
2019-05-07T00:15:07.948Z,3.60
2019-05-07T00:16:07.570Z,3.70
2019-05-07T00:17:05.622Z,3.70
2019-05-07T00:18:07.260Z,3.70
2019-05-07T00:19:05.296Z,3.60
2019-05-07T00:20:05.425Z,3.70
2019-05-07T00:21:05.441Z,3.70
2019-05-07T00:22:05.501Z,3.70
2019-05-07T00:23:05.582Z,3.60
2019-05-07T00:24:07.231Z,3.70
2019-05-07T00:25:05.146Z,3.60
2019-05-07T00:26:07.726Z,3.70
2019-05-07T00:27:04.662Z,3.70
2019-05-07T00:28:07.279Z,3.70
2019-05-07T00:29:05.395Z,3.70
2019-05-07T00:30:05.699Z,3.70
2019-05-07T00:31:04.870Z,3.70
2019-05-07T00:32:04.984Z,3.70
2019-05-07T00:33:05.198Z,3.70
2019-05-07T00:34:07.973Z,3.70
2019-05-07T00:35:05.008Z,3.70
2019-05-07T00:36:05.063Z,3.70
2019-05-07T00:37:06.944Z,3.80
2019-05-07T00:38:07.775Z,3.80
2019-05-07T00:39:07.245Z,3.80
2019-05-07T00:40:07.810Z,3.80
2019-05-07T00:41:04.859Z,3.80
2019-05-07T00:42:10.110Z,3.80
2019-05-07T00:43:05.441Z,3.90
2019-05-07T00:44:08.077Z,3.90
2019-05-07T00:45:16.778Z,3.90
2019-05-07T00:46:13.004Z,3.90
2019-05-07T00:47:05.424Z,3.90
2019-05-07T00:48:05.525Z,4.00
2019-05-07T00:49:04.669Z,4.00
2019-05-07T00:50:07.454Z,4.00
2019-05-07T00:51:05.472Z,4.00
2019-05-07T00:52:05.584Z,4.00
2019-05-07T00:53:04.939Z,4.10
2019-05-07T00:54:07.781Z,4.00
2019-05-07T00:55:07.276Z,4.10
2019-05-07T00:56:07.722Z,4.10
2019-05-07T00:57:05.645Z,4.10
2019-05-07T00:58:07.395Z,4.10
2019-05-07T00:59:08.021Z,4.10
2019-05-07T01:00:07.723Z,4.10
2019-05-07T01:01:07.233Z,4.10
2019-05-07T01:02:05.253Z,4.10
2019-05-07T01:03:12.737Z,4.20
2019-05-07T01:04:05.285Z,4.20
2019-05-07T01:05:07.953Z,4.20
2019-05-07T01:06:04.942Z,4.20
2019-05-07T01:07:05.149Z,4.20
2019-05-07T01:08:07.962Z,4.20
2019-05-07T01:09:04.983Z,4.20
2019-05-07T01:10:05.203Z,4.20
2019-05-07T01:11:05.325Z,4.20
2019-05-07T01:12:05.554Z,4.20
2019-05-07T01:13:04.689Z,4.20
2019-05-07T01:14:04.957Z,4.30
2019-05-07T01:15:07.717Z,4.30
2019-05-07T01:16:05.697Z,4.20
2019-05-07T01:17:04.969Z,4.20
2019-05-07T01:18:05.067Z,4.30
2019-05-07T01:19:05.290Z,4.20
2019-05-07T01:20:05.432Z,4.30
2019-05-07T01:21:08.176Z,4.30
2019-05-07T01:22:05.123Z,4.30
2019-05-07T01:23:07.710Z,4.30
2019-05-07T01:24:07.264Z,4.30
2019-05-07T01:25:07.720Z,4.30
2019-05-07T01:26:04.722Z,4.30
2019-05-07T01:27:07.351Z,4.40
2019-05-07T01:28:05.337Z,4.40
2019-05-07T01:29:05.391Z,4.40
2019-05-07T01:30:05.452Z,4.40
2019-05-07T01:31:05.506Z,4.40
2019-05-07T01:32:07.399Z,4.40
2019-05-07T01:33:05.370Z,4.40
2019-05-07T01:34:05.523Z,4.50
2019-05-07T01:35:05.704Z,4.40
2019-05-07T01:36:04.783Z,4.50
2019-05-07T01:37:12.168Z,4.50
2019-05-07T01:38:07.922Z,4.50
2019-05-07T01:39:04.886Z,4.50
2019-05-07T01:40:05.021Z,4.50
2019-05-07T01:41:05.121Z,4.50
2019-05-07T01:42:07.861Z,4.60
2019-05-07T01:43:07.443Z,4.50
2019-05-07T01:44:05.372Z,4.50
2019-05-07T01:45:12.719Z,4.60
2019-05-07T01:46:05.382Z,4.60
2019-05-07T01:47:07.311Z,4.60
2019-05-07T01:48:07.751Z,4.60
2019-05-07T01:49:04.711Z,4.60
2019-05-07T01:50:07.284Z,4.60
2019-05-07T01:51:05.361Z,4.60
2019-05-07T01:52:08.025Z,4.60
2019-05-07T01:53:04.995Z,4.60
2019-05-07T01:54:05.086Z,4.60
2019-05-07T01:55:07.642Z,4.70
2019-05-07T01:56:04.641Z,4.70
2019-05-07T01:57:04.702Z,4.70
2019-05-07T01:58:04.917Z,4.70
2019-05-07T01:59:05.024Z,4.70
2019-05-07T02:00:05.109Z,4.70
2019-05-07T02:01:05.286Z,4.70
2019-05-07T02:02:08.043Z,4.70
2019-05-07T02:03:07.515Z,4.70
2019-05-07T02:04:05.428Z,4.70
2019-05-07T02:05:05.597Z,4.70
2019-05-07T02:06:07.270Z,4.80
2019-05-07T02:07:05.193Z,4.80
2019-05-07T02:08:05.271Z,4.80
2019-05-07T02:09:05.505Z,4.80
2019-05-07T02:10:08.174Z,4.80
2019-05-07T02:11:05.109Z,4.80
2019-05-07T02:12:07.791Z,4.80
2019-05-07T02:13:04.770Z,4.80
2019-05-07T02:14:13.589Z,4.80
2019-05-07T02:15:05.487Z,4.80
2019-05-07T02:16:05.674Z,4.80
2019-05-07T02:17:05.028Z,4.80
2019-05-07T02:18:05.295Z,4.80
2019-05-07T02:19:08.012Z,4.90
2019-05-07T02:20:10.019Z,4.90
2019-05-07T02:21:07.581Z,4.90
2019-05-07T02:22:05.585Z,4.90
2019-05-07T02:23:04.637Z,4.90
2019-05-07T02:24:04.699Z,4.90
2019-05-07T02:25:07.442Z,5.00
2019-05-07T02:26:05.342Z,4.90
2019-05-07T02:27:08.137Z,5.00
2019-05-07T02:28:05.110Z,4.90
2019-05-07T02:29:05.382Z,5.00
2019-05-07T02:30:05.577Z,5.00
2019-05-07T02:31:04.840Z,5.00
2019-05-07T02:32:05.106Z,5.00
2019-05-07T02:33:05.338Z,5.00
2019-05-07T02:34:05.494Z,5.00
2019-05-07T02:35:08.244Z,5.00
2019-05-07T02:36:05.181Z,5.00
2019-05-07T02:37:05.350Z,5.00
2019-05-07T02:38:07.990Z,5.00
2019-05-07T02:39:04.936Z,5.00
2019-05-07T02:40:05.029Z,5.00
2019-05-07T02:41:05.233Z,5.00
2019-05-07T02:42:07.925Z,5.00
2019-05-07T02:43:05.075Z,5.00
2019-05-07T02:44:07.733Z,5.00
2019-05-07T02:45:04.831Z,5.00
2019-05-07T02:46:20.336Z,5.00
2019-05-07T02:47:04.662Z,5.00
2019-05-07T02:48:04.733Z,5.00
2019-05-07T02:49:08.290Z,5.00
2019-05-07T02:50:07.741Z,5.00
2019-05-07T02:51:04.649Z,5.00
2019-05-07T02:52:05.078Z,5.00
2019-05-07T02:53:05.600Z,5.00
2019-05-07T02:54:07.210Z,5.00
2019-05-07T02:55:07.778Z,5.00
2019-05-07T02:56:13.054Z,5.00
2019-05-07T02:57:05.450Z,4.90
2019-05-07T02:58:05.600Z,5.00
2019-05-07T02:59:04.769Z,5.00
2019-05-07T03:00:05.017Z,5.00
2019-05-07T03:01:05.366Z,5.00
2019-05-07T03:02:05.524Z,5.00
2019-05-07T03:03:08.157Z,5.00
2019-05-07T03:04:05.136Z,4.90
2019-05-07T03:05:05.589Z,5.00
2019-05-07T03:06:07.255Z,5.00
2019-05-07T03:07:07.738Z,5.00
2019-05-07T03:08:04.733Z,5.00
2019-05-07T03:09:05.031Z,5.00
2019-05-07T03:10:05.267Z,5.00
2019-05-07T03:11:05.510Z,5.00
2019-05-07T03:12:07.216Z,5.00
2019-05-07T03:13:05.154Z,5.00
2019-05-07T03:14:05.236Z,5.00
2019-05-07T03:15:05.337Z,5.00
2019-05-07T03:16:05.566Z,5.00
2019-05-07T03:17:04.791Z,5.00
2019-05-07T03:18:04.981Z,5.00
2019-05-07T03:19:05.090Z,5.00
2019-05-07T03:20:07.731Z,5.00
2019-05-07T03:21:04.758Z,5.00
2019-05-07T03:22:05.268Z,5.00
2019-05-07T03:23:05.359Z,5.00
2019-05-07T03:24:05.551Z,5.00
2019-05-07T03:25:05.526Z,5.00
2019-05-07T03:26:13.374Z,5.00
2019-05-07T03:27:08.213Z,5.00
2019-05-07T03:28:05.255Z,5.00
2019-05-07T03:29:07.964Z,5.00
2019-05-07T03:30:05.108Z,5.00
2019-05-07T03:31:06.247Z,5.00
2019-05-07T03:32:06.221Z,5.00
2019-05-07T03:33:07.197Z,5.00
2019-05-07T03:34:06.772Z,5.00
2019-05-07T03:35:06.491Z,5.00
2019-05-07T03:36:06.836Z,5.00
2019-05-07T03:37:06.443Z,5.00
2019-05-07T03:38:04.823Z,5.00
2019-05-07T03:39:05.006Z,5.00
2019-05-07T03:40:07.730Z,5.00
2019-05-07T03:41:07.417Z,5.00
2019-05-07T03:42:05.370Z,5.00
2019-05-07T03:43:08.071Z,5.00
2019-05-07T03:44:07.557Z,5.00
2019-05-07T03:45:08.065Z,5.00
2019-05-07T03:46:05.116Z,4.90
2019-05-07T03:47:06.339Z,5.00
2019-05-07T03:48:05.645Z,5.00
2019-05-07T03:49:04.751Z,4.90
2019-05-07T03:50:04.944Z,5.00
2019-05-07T03:51:05.136Z,5.00
2019-05-07T03:52:07.764Z,5.00
2019-05-07T03:53:04.699Z,4.90
2019-05-07T03:54:04.927Z,4.90
2019-05-07T03:55:05.049Z,4.90
2019-05-07T03:56:12.960Z,4.90
2019-05-07T03:57:11.010Z,4.90
2019-05-07T03:58:08.138Z,4.90
2019-05-07T03:59:07.659Z,4.90
2019-05-07T04:00:08.160Z,4.90
2019-05-07T04:01:05.247Z,4.90
2019-05-07T04:02:05.541Z,4.90
2019-05-07T04:03:08.339Z,4.90
2019-05-07T04:04:07.934Z,4.90
2019-05-07T04:05:04.974Z,4.90
2019-05-07T04:06:12.734Z,4.90
2019-05-07T04:07:05.515Z,5.00
2019-05-07T04:08:04.662Z,4.90
2019-05-07T04:09:04.859Z,5.00
2019-05-07T04:10:05.031Z,5.00
2019-05-07T04:11:05.474Z,4.90
2019-05-07T04:12:05.567Z,4.90
2019-05-07T04:13:08.006Z,5.00
2019-05-07T04:14:05.045Z,4.90
2019-05-07T04:15:07.870Z,4.90
2019-05-07T04:16:05.033Z,5.00
2019-05-07T04:17:14.095Z,4.90
2019-05-07T04:18:05.778Z,5.00
2019-05-07T04:19:07.594Z,5.00
2019-05-07T04:20:05.697Z,5.00
2019-05-07T04:21:04.917Z,5.00
2019-05-07T04:22:05.119Z,5.00
2019-05-07T04:23:05.428Z,5.00
2019-05-07T04:24:08.246Z,5.00
2019-05-07T04:25:08.386Z,5.00
2019-05-07T04:26:05.418Z,5.00
2019-05-07T04:27:05.601Z,5.00
2019-05-07T04:28:07.292Z,5.00
2019-05-07T04:29:06.271Z,5.00
2019-05-07T04:30:05.637Z,5.00
2019-05-07T04:31:07.237Z,5.00
2019-05-07T04:32:07.619Z,5.00
2019-05-07T04:33:05.437Z,5.00
2019-05-07T04:34:07.972Z,5.00
2019-05-07T04:35:04.789Z,5.00
2019-05-07T04:36:05.014Z,5.00
2019-05-07T04:37:12.979Z,5.00
2019-05-07T04:38:06.549Z,5.00
2019-05-07T04:39:05.370Z,5.00
2019-05-07T04:40:07.991Z,5.00
2019-05-07T04:41:04.897Z,5.00
2019-05-07T04:42:07.480Z,5.00
2019-05-07T04:43:07.844Z,5.00
2019-05-07T04:44:07.353Z,5.00
2019-05-07T04:45:07.784Z,5.10
2019-05-07T04:46:14.313Z,5.10
2019-05-07T04:47:05.509Z,5.00
2019-05-07T04:48:08.246Z,5.10
2019-05-07T04:49:05.236Z,5.10
2019-05-07T04:50:05.317Z,5.10
2019-05-07T04:51:07.929Z,5.10
2019-05-07T04:52:04.848Z,5.10
2019-05-07T04:53:05.013Z,5.10
2019-05-07T04:54:07.626Z,5.20
2019-05-07T04:55:13.459Z,5.20
2019-05-07T04:56:13.823Z,5.20
2019-05-07T04:57:05.542Z,5.20
2019-05-07T04:58:14.662Z,5.20
2019-05-07T04:59:08.112Z,5.20
2019-05-07T05:00:07.517Z,5.20
2019-05-07T05:01:05.409Z,3.60
2019-05-07T05:02:05.422Z,5.20
2019-05-07T05:03:07.960Z,5.30
2019-05-07T05:04:21.870Z,5.30
2019-05-07T05:05:05.361Z,5.30
2019-05-07T05:06:05.302Z,5.30
2019-05-07T05:07:07.756Z,5.30
2019-05-07T05:08:04.677Z,5.30
2019-05-07T05:09:04.721Z,5.30
2019-05-07T05:10:04.918Z,5.30
2019-05-07T05:11:07.692Z,5.40
2019-05-07T05:12:04.602Z,5.40
2019-05-07T05:13:04.653Z,5.40
2019-05-07T05:14:07.674Z,5.40
2019-05-07T05:15:07.589Z,5.50
2019-05-07T05:16:07.964Z,5.50
2019-05-07T05:17:04.824Z,5.50
2019-05-07T05:18:04.756Z,5.50
2019-05-07T05:19:07.503Z,5.60
2019-05-07T05:20:05.369Z,5.50
2019-05-07T05:21:07.217Z,5.60
2019-05-07T05:22:05.128Z,5.60
2019-05-07T05:23:05.311Z,5.60
2019-05-07T05:24:05.314Z,5.60
2019-05-07T05:25:05.294Z,5.70
2019-05-07T05:26:07.825Z,5.70
2019-05-07T05:27:07.186Z,5.80
2019-05-07T05:28:06.211Z,5.80
2019-05-07T05:29:05.186Z,5.80
2019-05-07T05:30:05.233Z,5.80
2019-05-07T05:31:07.977Z,5.90
2019-05-07T05:32:07.393Z,5.90
2019-05-07T05:33:07.742Z,5.90
2019-05-07T05:34:05.629Z,5.90
2019-05-07T05:35:04.718Z,6.00
2019-05-07T05:36:07.404Z,6.00
2019-05-07T05:37:07.957Z,6.10
2019-05-07T05:38:07.526Z,6.10
2019-05-07T05:39:05.436Z,6.10
2019-05-07T05:40:08.625Z,6.20
2019-05-07T05:41:04.919Z,6.20
2019-05-07T05:42:05.006Z,6.20
2019-05-07T05:43:07.515Z,6.30
2019-05-07T05:44:05.339Z,6.30
2019-05-07T05:45:05.396Z,6.30
2019-05-07T05:46:05.427Z,6.40
2019-05-07T05:47:07.956Z,6.40
2019-05-07T05:48:07.982Z,6.40
2019-05-07T05:49:05.469Z,6.40
2019-05-07T05:50:05.446Z,6.50
2019-05-07T05:51:05.494Z,6.50
2019-05-07T05:52:07.997Z,6.60
2019-05-07T05:53:04.914Z,6.60
2019-05-07T05:54:04.926Z,6.60
2019-05-07T05:55:04.850Z,6.70
2019-05-07T05:56:04.767Z,6.70
2019-05-07T05:57:04.765Z,6.70
2019-05-07T05:58:05.220Z,6.80
2019-05-07T05:59:07.846Z,6.90
2019-05-07T06:00:04.657Z,6.80
2019-05-07T06:01:04.608Z,6.90
2019-05-07T06:02:06.579Z,6.90
2019-05-07T06:03:07.407Z,7.00
2019-05-07T06:04:05.290Z,7.00
2019-05-07T06:05:05.297Z,7.10
2019-05-07T06:06:07.776Z,7.10
2019-05-07T06:07:10.737Z,7.10
2019-05-07T06:08:05.351Z,7.20
2019-05-07T06:09:07.931Z,7.30
2019-05-07T06:10:04.852Z,7.30
2019-05-07T06:11:04.781Z,7.30
2019-05-07T06:12:04.850Z,7.40
2019-05-07T06:13:04.854Z,7.50
2019-05-07T06:14:04.818Z,7.50
2019-05-07T06:15:04.934Z,7.50
2019-05-07T06:16:11.981Z,7.50
2019-05-07T06:17:07.915Z,7.60
2019-05-07T06:18:17.852Z,7.50
2019-05-07T06:19:08.138Z,7.60
2019-05-07T06:20:05.035Z,7.70
2019-05-07T06:21:07.537Z,7.70
2019-05-07T06:22:05.391Z,7.70
2019-05-07T06:23:07.939Z,7.70
2019-05-07T06:24:04.723Z,7.70
2019-05-07T06:25:04.735Z,7.70
2019-05-07T06:26:05.225Z,7.70
2019-05-07T06:27:05.350Z,7.80
2019-05-07T06:28:05.304Z,7.80
2019-05-07T06:29:05.293Z,7.90
2019-05-07T06:30:05.338Z,7.90
2019-05-07T06:31:05.503Z,8.00
2019-05-07T06:32:12.097Z,8.30
2019-05-07T06:33:07.731Z,8.40
2019-05-07T06:34:07.214Z,8.50
2019-05-07T06:35:05.277Z,8.50
2019-05-07T06:36:05.358Z,8.60
2019-05-07T06:37:07.896Z,8.80
2019-05-07T06:38:04.820Z,8.80
2019-05-07T06:39:04.871Z,8.90
2019-05-07T06:40:05.544Z,9.00
2019-05-07T06:41:05.552Z,9.10
2019-05-07T06:42:05.558Z,9.10
2019-05-07T06:43:13.231Z,9.10
2019-05-07T06:44:04.646Z,9.20
2019-05-07T06:45:05.258Z,9.10
2019-05-07T06:46:05.495Z,9.10
2019-05-07T06:47:05.514Z,9.10
2019-05-07T06:48:07.455Z,9.10
2019-05-07T06:49:05.418Z,9.10
2019-05-07T06:50:05.461Z,9.10
2019-05-07T06:51:05.440Z,9.00
2019-05-07T06:52:05.443Z,9.00
2019-05-07T06:53:05.442Z,9.00
2019-05-07T06:54:05.555Z,9.00
2019-05-07T06:55:05.640Z,9.00
2019-05-07T06:56:07.276Z,9.10
2019-05-07T06:57:05.286Z,9.00
2019-05-07T06:58:05.316Z,9.00
2019-05-07T06:59:05.312Z,9.10
2019-05-07T07:00:05.225Z,9.00
2019-05-07T07:01:05.183Z,9.00
2019-05-07T07:02:05.733Z,9.00
2019-05-07T07:03:04.848Z,9.00
2019-05-07T07:04:09.621Z,9.00
2019-05-07T07:05:08.708Z,9.00
2019-05-07T07:06:08.184Z,9.00
2019-05-07T07:07:07.612Z,9.00
2019-05-07T07:08:05.469Z,9.00
2019-05-07T07:09:08.078Z,9.00
2019-05-07T07:10:04.936Z,9.00
2019-05-07T07:11:04.919Z,9.00
2019-05-07T07:12:04.896Z,9.00
2019-05-07T07:13:07.363Z,9.00
2019-05-07T07:14:07.808Z,9.00
2019-05-07T07:15:04.658Z,9.00
2019-05-07T07:16:07.254Z,9.10
2019-05-07T07:17:07.605Z,9.10
2019-05-07T07:18:05.470Z,9.10
2019-05-07T07:19:08.031Z,9.10
2019-05-07T07:20:04.927Z,9.10
2019-05-07T07:21:04.991Z,9.10
2019-05-07T07:22:05.014Z,9.10
2019-05-07T07:23:07.779Z,9.10
2019-05-07T07:24:04.810Z,9.10
2019-05-07T07:25:06.638Z,9.10
2019-05-07T07:26:04.789Z,9.10
2019-05-07T07:27:04.781Z,9.10
2019-05-07T07:28:04.773Z,9.10
2019-05-07T07:29:04.710Z,9.10
2019-05-07T07:30:04.650Z,9.10
2019-05-07T07:31:04.641Z,9.10
2019-05-07T07:32:04.605Z,9.10
2019-05-07T07:33:07.365Z,9.10
2019-05-07T07:34:05.241Z,9.10
2019-05-07T07:35:05.241Z,9.10
2019-05-07T07:36:04.676Z,9.00
2019-05-07T07:37:08.381Z,9.00
2019-05-07T07:38:07.694Z,9.00
2019-05-07T07:39:05.604Z,9.00
2019-05-07T07:40:07.165Z,9.00
2019-05-07T07:41:05.449Z,8.90
2019-05-07T07:42:05.475Z,8.90
2019-05-07T07:43:07.074Z,8.90
2019-05-07T07:44:05.276Z,8.90
2019-05-07T07:45:05.390Z,8.90
2019-05-07T07:46:05.443Z,8.90
2019-05-07T07:47:05.542Z,8.80
2019-05-07T07:48:07.115Z,8.80
2019-05-07T07:49:10.872Z,8.80
2019-05-07T07:50:04.690Z,8.80
2019-05-07T07:51:07.192Z,8.80
2019-05-07T07:52:05.091Z,8.70
2019-05-07T07:53:05.074Z,8.80
2019-05-07T07:54:05.041Z,8.70
2019-05-07T07:55:05.005Z,8.70
2019-05-07T07:56:07.552Z,8.70
2019-05-07T07:57:05.519Z,8.70
2019-05-07T07:58:05.568Z,8.70
2019-05-07T07:59:04.568Z,8.60
2019-05-07T08:00:05.578Z,8.60
2019-05-07T08:01:04.727Z,8.60
2019-05-07T08:02:04.822Z,8.60
2019-05-07T08:03:04.918Z,8.60
2019-05-07T08:04:07.577Z,8.50
2019-05-07T08:05:05.520Z,8.50
2019-05-07T08:06:11.930Z,8.50
2019-05-07T08:07:05.054Z,8.50
2019-05-07T08:08:07.582Z,8.50
2019-05-07T08:09:08.008Z,8.40
2019-05-07T08:10:05.060Z,8.50
2019-05-07T08:11:05.037Z,8.40
2019-05-07T08:12:05.078Z,8.40
2019-05-07T08:13:08.078Z,8.40
2019-05-07T08:14:04.925Z,8.40
2019-05-07T08:15:16.610Z,8.40
2019-05-07T08:16:07.530Z,8.40
2019-05-07T08:17:05.503Z,8.40
2019-05-07T08:18:08.144Z,8.40
2019-05-07T08:19:18.246Z,8.40
2019-05-07T08:20:05.598Z,8.40
2019-05-07T08:21:07.952Z,8.40
2019-05-07T08:22:05.175Z,8.40
2019-05-07T08:23:05.575Z,8.40
2019-05-07T08:24:05.635Z,8.40
2019-05-07T08:25:07.314Z,8.40
2019-05-07T08:26:05.173Z,8.40
2019-05-07T08:27:07.756Z,8.40
2019-05-07T08:28:04.698Z,8.40
2019-05-07T08:29:07.453Z,8.40
2019-05-07T08:30:05.368Z,8.40
2019-05-07T08:31:07.998Z,8.50
2019-05-07T08:32:07.382Z,8.50
2019-05-07T08:33:09.715Z,8.50
2019-05-07T08:34:07.367Z,8.50
2019-05-07T08:35:05.238Z,8.50
2019-05-07T08:36:05.509Z,8.50
2019-05-07T08:37:04.903Z,8.50
2019-05-07T08:38:07.628Z,8.50
2019-05-07T08:39:08.029Z,8.60
2019-05-07T08:40:04.958Z,8.60
2019-05-07T08:41:05.111Z,8.60
2019-05-07T08:42:07.742Z,8.70
2019-05-07T08:43:04.602Z,8.70
2019-05-07T08:44:11.396Z,8.80
2019-05-07T08:45:05.078Z,8.90
2019-05-07T08:46:05.152Z,8.90
2019-05-07T08:47:05.295Z,8.90
2019-05-07T08:48:05.428Z,9.00
2019-05-07T08:49:07.995Z,9.20
2019-05-07T08:50:07.560Z,9.30
2019-05-07T08:51:07.990Z,9.30
2019-05-07T08:52:07.479Z,9.40
2019-05-07T08:53:05.432Z,9.40
2019-05-07T08:54:05.428Z,9.50
2019-05-07T08:55:05.564Z,9.60
2019-05-07T08:56:07.161Z,9.90
2019-05-07T08:57:07.688Z,10.00
2019-05-07T08:58:08.192Z,10.10
2019-05-07T08:59:07.623Z,10.30
2019-05-07T09:00:05.456Z,10.20
2019-05-07T09:01:08.063Z,10.50
2019-05-07T09:02:12.347Z,10.50
2019-05-07T09:03:19.260Z,10.70
2019-05-07T09:04:04.708Z,10.70
2019-05-07T09:05:04.779Z,10.80
2019-05-07T09:06:04.765Z,11.00
2019-05-07T09:07:07.305Z,11.10
2019-05-07T09:08:05.182Z,11.10
2019-05-07T09:09:05.198Z,11.30
2019-05-07T09:10:05.198Z,11.30
2019-05-07T09:11:05.285Z,11.50
2019-05-07T09:12:07.939Z,11.70
2019-05-07T09:13:04.976Z,11.70
2019-05-07T09:14:05.114Z,11.90
2019-05-07T09:15:07.916Z,12.00
2019-05-07T09:16:07.349Z,12.10
2019-05-07T09:17:05.270Z,12.10
2019-05-07T09:18:07.930Z,12.10
2019-05-07T09:19:04.770Z,12.10
2019-05-07T09:20:09.177Z,12.00
2019-05-07T09:21:05.267Z,12.00
2019-05-07T09:22:05.336Z,11.90
2019-05-07T09:23:12.194Z,11.70
2019-05-07T09:24:05.319Z,11.70
2019-05-07T09:25:05.503Z,11.60
2019-05-07T09:26:08.129Z,11.50
2019-05-07T09:27:12.020Z,11.50
2019-05-07T09:28:07.612Z,11.40
2019-05-07T09:29:08.060Z,11.30
2019-05-07T09:30:05.038Z,11.30
2019-05-07T09:31:05.117Z,11.30
2019-05-07T09:32:05.344Z,11.20
2019-05-07T09:33:08.040Z,11.20
2019-05-07T09:34:07.548Z,11.20
2019-05-07T09:35:05.494Z,11.20
2019-05-07T09:36:08.122Z,11.20
2019-05-07T09:37:07.544Z,11.20
2019-05-07T09:38:05.381Z,11.20
2019-05-07T09:39:07.993Z,11.20
2019-05-07T09:40:07.514Z,11.10
2019-05-07T09:41:05.375Z,11.20
2019-05-07T09:42:07.936Z,11.20
2019-05-07T09:43:07.449Z,11.10
2019-05-07T09:44:05.416Z,11.10
2019-05-07T09:45:05.459Z,11.20
2019-05-07T09:46:05.446Z,11.10
2019-05-07T09:47:05.441Z,11.20
2019-05-07T09:48:07.997Z,11.20
2019-05-07T09:49:04.817Z,11.20
2019-05-07T09:50:07.707Z,11.20
2019-05-07T09:51:04.752Z,11.30
2019-05-07T09:52:09.847Z,11.20
2019-05-07T09:53:04.873Z,11.20
2019-05-07T09:54:04.842Z,11.20
2019-05-07T09:55:14.006Z,11.20
2019-05-07T09:56:07.833Z,11.20
2019-05-07T09:57:04.703Z,11.20
2019-05-07T09:58:07.336Z,11.10
2019-05-07T09:59:05.282Z,11.10
2019-05-07T10:00:05.390Z,11.10
2019-05-07T10:01:05.371Z,11.10
2019-05-07T10:02:05.353Z,11.10
2019-05-07T10:03:05.359Z,11.00
2019-05-07T10:04:07.984Z,11.00
2019-05-07T10:05:04.883Z,11.00
2019-05-07T10:06:04.923Z,11.00
2019-05-07T10:07:07.580Z,10.90
2019-05-07T10:08:07.960Z,11.00
2019-05-07T10:09:07.368Z,10.90
2019-05-07T10:10:05.408Z,10.90
2019-05-07T10:11:07.241Z,11.00
2019-05-07T10:12:05.041Z,10.90
2019-05-07T10:13:12.928Z,11.00
2019-05-07T10:14:07.428Z,11.00
2019-05-07T10:15:05.289Z,11.00
2019-05-07T10:16:07.631Z,11.10
2019-05-07T10:17:11.899Z,11.20
2019-05-07T10:18:07.569Z,11.20
2019-05-07T10:19:05.486Z,11.30
2019-05-07T10:20:18.080Z,11.30
2019-05-07T10:21:05.299Z,11.30
2019-05-07T10:22:07.912Z,11.30
2019-05-07T10:23:04.817Z,11.30
2019-05-07T10:24:07.422Z,11.40
2019-05-07T10:25:08.006Z,11.40
2019-05-07T10:26:04.897Z,11.40
2019-05-07T10:27:05.013Z,11.40
2019-05-07T10:28:05.186Z,11.40
2019-05-07T10:29:07.841Z,11.50
2019-05-07T10:30:04.808Z,11.40
2019-05-07T10:31:10.002Z,11.50
2019-05-07T10:32:07.658Z,11.40
2019-05-07T10:33:04.797Z,11.40
2019-05-07T10:34:07.528Z,11.40
2019-05-07T10:35:08.312Z,11.30
2019-05-07T10:36:08.086Z,11.30
2019-05-07T10:37:05.108Z,11.30
2019-05-07T10:38:05.412Z,11.30
2019-05-07T10:39:05.600Z,11.30
2019-05-07T10:40:05.116Z,11.20
2019-05-07T10:41:05.244Z,11.30
2019-05-07T10:42:05.386Z,11.20
2019-05-07T10:43:10.716Z,11.20
2019-05-07T10:44:04.776Z,11.20
2019-05-07T10:45:04.940Z,11.20
2019-05-07T10:46:05.301Z,11.20
2019-05-07T10:47:05.662Z,11.20
2019-05-07T10:48:06.866Z,11.20
2019-05-07T10:49:05.069Z,11.30
2019-05-07T10:50:05.252Z,11.30
2019-05-07T10:51:08.043Z,11.30
2019-05-07T10:52:05.138Z,11.30
2019-05-07T10:53:05.239Z,11.40
2019-05-07T10:54:05.513Z,11.40
2019-05-07T10:55:05.678Z,11.40
2019-05-07T10:56:04.792Z,11.50
2019-05-07T10:57:05.038Z,11.40
2019-05-07T10:58:10.269Z,11.50
2019-05-07T10:59:07.759Z,11.60
2019-05-07T11:00:04.773Z,11.50
2019-05-07T11:01:05.235Z,11.60
2019-05-07T11:02:05.403Z,11.60
2019-05-07T11:03:12.567Z,11.60
2019-05-07T11:04:07.567Z,11.70
2019-05-07T11:05:08.170Z,11.70
2019-05-07T11:06:05.175Z,11.60
2019-05-07T11:07:05.356Z,11.70
2019-05-07T11:08:04.898Z,11.70
2019-05-07T11:09:05.287Z,11.80
2019-05-07T11:10:05.480Z,11.70
2019-05-07T11:11:05.647Z,11.80
2019-05-07T11:12:04.763Z,11.80
2019-05-07T11:13:04.908Z,11.80
2019-05-07T11:14:04.814Z,11.80
2019-05-07T11:15:07.686Z,12.00
2019-05-07T11:16:04.789Z,12.00
2019-05-07T11:17:05.186Z,12.00
2019-05-07T11:18:04.846Z,12.10
2019-05-07T11:19:07.514Z,12.20
2019-05-07T11:20:08.120Z,12.20
2019-05-07T11:21:04.705Z,12.20
2019-05-07T11:22:04.932Z,12.30
2019-05-07T11:23:05.168Z,12.40
2019-05-07T11:24:08.066Z,12.50
2019-05-07T11:25:05.025Z,12.50
2019-05-07T11:26:05.131Z,12.60
2019-05-07T11:27:05.469Z,12.70
2019-05-07T11:28:05.058Z,12.70
2019-05-07T11:29:05.337Z,12.90
2019-05-07T11:30:05.540Z,12.90
2019-05-07T11:31:07.205Z,13.00
2019-05-07T11:32:05.240Z,13.00
2019-05-07T11:33:05.377Z,13.00
2019-05-07T11:34:05.595Z,13.10
2019-05-07T11:35:04.712Z,13.00
2019-05-07T11:36:12.652Z,13.00
2019-05-07T11:37:04.797Z,13.00
2019-05-07T11:38:18.505Z,13.00
2019-05-07T11:39:08.258Z,13.00
2019-05-07T11:40:05.314Z,13.00
2019-05-07T11:41:07.974Z,13.10
2019-05-07T11:42:04.991Z,13.10
2019-05-07T11:43:07.702Z,13.10
2019-05-07T11:44:04.799Z,13.10
2019-05-07T11:45:04.975Z,13.10
2019-05-07T11:46:07.656Z,13.00
2019-05-07T11:47:08.276Z,13.00
2019-05-07T11:48:13.097Z,13.00
2019-05-07T11:49:07.369Z,13.00
2019-05-07T11:50:05.385Z,13.00
2019-05-07T11:51:05.567Z,13.00
2019-05-07T11:52:04.684Z,13.00
2019-05-07T11:53:07.413Z,13.00
2019-05-07T11:54:07.936Z,12.90
2019-05-07T11:55:05.051Z,12.90
2019-05-07T11:56:07.944Z,12.90
2019-05-07T11:57:04.987Z,12.90
2019-05-07T11:58:07.668Z,12.90
2019-05-07T11:59:08.182Z,12.90
2019-05-07T12:00:10.184Z,12.90
2019-05-07T12:01:08.199Z,12.90
2019-05-07T12:02:07.703Z,12.90
2019-05-07T12:03:04.709Z,12.90
2019-05-07T12:04:07.529Z,13.00
2019-05-07T12:05:08.107Z,13.00
2019-05-07T12:06:05.025Z,13.00
2019-05-07T12:07:05.190Z,13.10
2019-05-07T12:08:05.375Z,13.10
2019-05-07T12:09:08.118Z,13.10
2019-05-07T12:10:12.047Z,13.20
2019-05-07T12:11:05.098Z,13.20
2019-05-07T12:12:08.415Z,13.20
2019-05-07T12:13:05.510Z,13.20
2019-05-07T12:14:04.773Z,13.20
2019-05-07T12:15:07.603Z,13.30
2019-05-07T12:16:11.174Z,13.30
2019-05-07T12:17:04.884Z,13.30
2019-05-07T12:18:05.327Z,13.30
2019-05-07T12:19:08.184Z,13.30
2019-05-07T12:20:05.268Z,13.30
2019-05-07T12:21:17.364Z,13.30
2019-05-07T12:22:07.997Z,13.30
2019-05-07T12:23:07.644Z,13.20
2019-05-07T12:24:05.835Z,13.30
2019-05-07T12:25:05.060Z,13.20
2019-05-07T12:26:05.307Z,13.20
2019-05-07T12:27:07.752Z,13.20
2019-05-07T12:28:07.575Z,13.20
2019-05-07T12:29:05.616Z,13.10
2019-05-07T12:30:04.862Z,13.20
2019-05-07T12:31:05.160Z,13.20
2019-05-07T12:32:05.381Z,13.10
2019-05-07T12:33:07.813Z,13.10
2019-05-07T12:34:04.909Z,13.10
2019-05-07T12:35:05.138Z,13.00
2019-05-07T12:36:05.230Z,13.10
2019-05-07T12:37:05.412Z,13.10
2019-05-07T12:38:05.624Z,13.10
2019-05-07T12:39:04.875Z,13.10
2019-05-07T12:40:04.980Z,13.10
2019-05-07T12:41:07.732Z,13.10
2019-05-07T12:42:04.755Z,13.10
2019-05-07T12:43:12.588Z,13.20
2019-05-07T12:44:04.663Z,13.20
2019-05-07T12:45:07.378Z,13.30
2019-05-07T12:46:08.006Z,13.30
2019-05-07T12:47:07.869Z,13.30
2019-05-07T12:48:05.012Z,13.30
2019-05-07T12:49:07.723Z,13.30
2019-05-07T12:50:07.231Z,13.30
2019-05-07T12:51:05.252Z,13.30
2019-05-07T12:52:12.547Z,13.40
2019-05-07T12:53:04.891Z,13.40
2019-05-07T12:54:05.809Z,13.40
2019-05-07T12:55:07.589Z,13.40
2019-05-07T12:56:05.801Z,13.50
2019-05-07T12:57:11.758Z,13.50
2019-05-07T12:58:05.013Z,13.50
2019-05-07T12:59:05.093Z,13.50
2019-05-07T13:00:07.760Z,13.50
2019-05-07T13:01:04.837Z,13.50
2019-05-07T13:02:16.663Z,13.50
2019-05-07T13:03:07.808Z,13.50
2019-05-07T13:04:04.843Z,13.50
2019-05-07T13:05:05.053Z,13.40
2019-05-07T13:06:07.763Z,13.30
2019-05-07T13:07:04.801Z,13.30
2019-05-07T13:08:05.086Z,13.30
2019-05-07T13:09:07.802Z,13.20
2019-05-07T13:10:08.527Z,13.20